TimePST,TemperatureF,Dew PointF,Humidity,Sea Level PressureIn,VisibilityMPH,Wind Direction,Wind SpeedMPH,Gust SpeedMPH,PrecipitationIn,Events,Conditions,WindDirDegrees,DateUTC
12:53 AM,25.0,21.0,85,30.50,10.0,South,9.2,-,N/A,,Clear,170,2013-03-01 08:53:00
1:53 AM,24.1,21.0,88,30.51,10.0,SSE,6.9,-,N/A,,Clear,150,2013-03-01 09:53:00
2:53 AM,23.0,19.9,88,30.51,10.0,SSE,10.4,-,N/A,,Clear,160,2013-03-01 10:53:00
3:53 AM,25.0,21.0,85,30.50,10.0,South,11.5,-,N/A,,Clear,180,2013-03-01 11:53:00
4:53 AM,23.0,19.0,85,30.53,10.0,SSE,10.4,-,N/A,,Clear,160,2013-03-01 12:53:00
5:53 AM,21.9,19.0,89,30.58,10.0,South,9.2,-,N/A,,Clear,170,2013-03-01 13:53:00
6:53 AM,21.9,19.0,89,30.60,10.0,SSE,9.2,-,N/A,,Clear,160,2013-03-01 14:53:00
7:53 AM,30.0,23.0,75,30.58,10.0,South,9.2,-,N/A,,Clear,180,2013-03-01 15:53:00
8:53 AM,37.9,25.0,60,30.56,10.0,South,6.9,-,N/A,,Clear,180,2013-03-01 16:53:00
9:53 AM,42.1,25.0,51,30.53,10.0,Calm,Calm,-,N/A,,Clear,0,2013-03-01 17:53:00
10:53 AM,46.9,28.0,48,30.50,10.0,North,3.5,-,N/A,,Clear,350,2013-03-01 18:53:00
11:53 AM,50.0,28.0,43,30.46,10.0,NNW,5.8,-,N/A,,Clear,340,2013-03-01 19:53:00
12:53 PM,51.1,28.9,43,30.44,10.0,NNW,5.8,-,N/A,,Clear,340,2013-03-01 20:53:00
1:53 PM,51.1,28.9,43,30.43,10.0,NNW,6.9,-,N/A,,Clear,340,2013-03-01 21:53:00
2:53 PM,53.1,27.0,37,30.41,10.0,North,3.5,-,N/A,,Clear,10,2013-03-01 22:53:00
3:53 PM,53.1,28.9,40,30.40,10.0,North,3.5,-,N/A,,Clear,350,2013-03-01 23:53:00
4:53 PM,48.2,30.2,50,30.45,10.0,North,11.5,-,N/A,,Clear,10,2013-03-02 00:53:00
5:53 PM,39.2,28.4,65,30.46,10.0,NW,5.8,-,N/A,,Clear,310,2013-03-02 01:53:00
6:53 PM,35.6,28.4,75,30.47,10.0,NNE,4.6,-,N/A,,Clear,20,2013-03-02 02:53:00
7:53 PM,30.9,27.0,85,30.51,10.0,Calm,Calm,-,N/A,,Clear,0,2013-03-02 03:53:00
8:53 PM,30.9,27.0,85,30.48,10.0,South,8.1,-,N/A,,Clear,180,2013-03-02 04:53:00
9:53 PM,30.0,26.1,85,30.48,10.0,SSE,10.4,-,N/A,,Clear,160,2013-03-02 05:53:00
10:53 PM,28.9,25.0,85,30.47,10.0,South,9.2,-,N/A,,Clear,180,2013-03-02 06:53:00
11:53 PM,27.0,25.0,92,30.45,10.0,South,3.5,-,N/A,,Clear,170,2013-03-02 07:53:00